Weather at West Houston Airport

Public forecast

Using degrees Fahrenheit for public forecast. Weather courtesy of forecast.io.

Closest aviation weather report (METAR) to West Houston Airport

Closest report is Houston Executive Airport, 11.8 nm (21.8 km) W. Retrieved 2020/11/26 00:35 UTC (14 minutes ago):

KTME 260035Z AUTO 01005KT 10SM CLR 14/08 A3006 RMK AO2

Closest aviation forecast (TAF) to West Houston Airport

Closest forecast is Sugar Land Regional Airport, 11.8 nm (21.8 km) S. Retrieved 2020-11-26 00:22 UTC (27 minutes ago):

TAF KSGR 252320Z 2600/2624 36006KT P6SM SKC FM260900 05006KT P6SM SCT050 FM261500 08006KT P6SM BKN050 OVC100 FM261900 13007KT P6SM OVC050